Meadowlakes, Texas
Current Conditions -  °F | °C
As of 11:55 PM on Saturday 22 Nov 2014 (Local Time) from KDZB Reporting Station
Overcast Overcast  
Wind Chill: 58°   Ceiling: 11000
Heat Index: 58°   Visibility: 10mi
Dew Point: 58°   Wind: 6mph
Humidity: 100%   Direction: 140°SE
Pressure: 29.74"   Gusts: NA
Location:  30.5925°N, 98.2219°W
Report Text: KDZB 230555Z AUTO 14005KT 10SM OVC110 14/14 A2974 RMK AO2 60001 T01420142 10170 20141 401890141
Loading
Personal Weather Stations






























Interactive Weather Map New forecast layout! Learn more

10-Day Weather Forecast

Advertisements
Track Severe Weather on mobile